This is the latest recevied weather packets stored in our database for station/object KI4MRC. If no packets are shown the sender has not sent any weather packets the latest 10 day(s).
| Time | Temp. | Humidity | Pressure | Rain* | Wind** | Luminosity | Snow |
|---|---|---|---|---|---|---|---|
| 1777432376 | 21.67° C | 87% | 1017.3 hPa | 0 mm | - | 0 W/m² | - |
| 1777432076 | 22.22° C | 87% | 1017.4 hPa | 0 mm | - | 0 W/m² | - |
| 1777431468 | 22.22° C | 86% | 1017.7 hPa | 0 mm | - | 0 W/m² | - |
| 1777429946 | 22.22° C | 87% | 1017.6 hPa | 0 mm | - | 0 W/m² | - |
| 1777429041 | 22.22° C | 86% | 1017.6 hPa | 0 mm | - | 0 W/m² | - |
| 1777425394 | 23.33° C | 79% | 1017.4 hPa | 0 mm | - | 0 W/m² | - |
| 1777423268 | 24.44° C | 76% | 1017.3 hPa | 0 mm | - | 0 W/m² | - |
| 1777422048 | 25° C | 75% | 1017.5 hPa | 0 mm | - | 0 W/m² | - |
| 1777420224 | 25° C | 74% | 1017.1 hPa | 0 mm | - | 3 W/m² | - |
| 1777413864 | 27.78° C | 62% | 1017.1 hPa | 0 mm | - | 35 W/m² | - |
| 1777411743 | 27.78° C | 62% | 1017.1 hPa | 0 mm | - | 36 W/m² | - |
| 1777409926 | 28.33° C | 61% | 1016.9 hPa | 0 mm | - | 56 W/m² | - |
| 1777409014 | 28.33° C | 61% | 1016.9 hPa | 0 mm | - | 82 W/m² | - |
| 1777407802 | 28.89° C | 60% | 1017 hPa | 0 mm | - | 67 W/m² | - |
| 1777405068 | 29.44° C | 58% | 1017.4 hPa | 0 mm | - | 114 W/m² | - |
| 1777404763 | 29.44° C | 58% | 1017.5 hPa | 0 mm | - | 129 W/m² | - |
| 1777403547 | 28.33° C | 58% | 1017.7 hPa | 0 mm | - | 222 W/m² | - |
| 1777400221 | 30° C | 52% | 1018.4 hPa | 0 mm | - | 196 W/m² | - |
| 1777397796 | 30.56° C | 47% | 1018.2 hPa | 0 mm | - | 1024 W/m² | - |
| 1777397187 | 30.56° C | 49% | 1018.5 hPa | 0 mm | - | 1026 W/m² | - |
| 1777396581 | 31.11° C | 46% | 1018.5 hPa | 0 mm | - | 1036 W/m² | - |
| 1777396278 | 30.56° C | 49% | 1018.7 hPa | 0 mm | - | 1027 W/m² | - |
| 1777395975 | 30.56° C | 48% | 1018.6 hPa | 0 mm | - | 1030 W/m² | - |
| 1777395366 | 30.56° C | 47% | 1018.8 hPa | 0 mm | - | 1022 W/m² | - |
| 1777395064 | 30.56° C | 45% | 1018.8 hPa | 0 mm | - | 1019 W/m² | - |
* Rain latest hour (hover to see other rain measurements)
** Current wind speed in m/s (hover to see current wind gust speed)